West Dover, VT (05356)

2:47 PM EDT on September 04, 2015 (GMT -0400)
Mt. Snow/Suntec Forest | | Change Station
CLOSE
Current Station
Personal Weather Station
Location: West Dover, VT
Elevation: 1932 ft
Nearby Weather Stations

Elev 1932 ft 42.95 °N, 72.89 °W | Updated 0 second ago

Partly Cloudy
Partly Cloudy
71.4 °F
Feels Like 75 °F
N
0.0
Wind Variable Wind from SSW
Gusts 1.0 mph

Today
High -- | Low -- °F
--% Chance of Precip.
Yesterday
High -- | Low -- °F
Precip. -- in
6:18 AM 7:21 PM
Waning Gibbous, 57% visible
Pressure 30.15 in
Visibility 10.0 miles
Clouds Clear
Heat Index 75 °F
Dew Point 61 °F
Humidity 64%
Rainfall 0.00 in
Snow Depth Not available.
UV 8 out of 12
Pollen 8.80 out of 12
Air Quality Not available.
Flu Activity Not available.
METAR KDDH 041754Z AUTO 15010KT 10SM CLR 27/15 A3016 RMK AO2 SLP210 T02670150 10267 20200 51004
Pressure 30.15 in
Visibility 10.0 miles
Clouds Clear
Heat Index 75 °F
Dew Point 61 °F
Humidity 64%
Rainfall 0.00 in
Snow Depth Not available.
UV 8 out of 12
Pollen 8.80 out of 12
Air Quality Not available.
Flu Activity Not available.
METAR KDDH 041754Z AUTO 15010KT 10SM CLR 27/15 A3016 RMK AO2 SLP210 T02670150 10267 20200 51004

10-Day Weather Forecast

×

Almanac

Astronomy

Sep. 04, 2015 Rise Set
Actual Time
Civil Twilight
Nautical Twilight
Astronomical Twilight
Moon
Length of Visible Light
Length of Day
Tomorrow will be .
, % of the Moon is Illuminated

Today's Extremes

State Highs State Lows

Community

WunderPhotos

Upload Photos

1,852,262 photos uploaded!

WunderBlogs® & News

Nearby

Air Quality

  Air Quality AQ Index Pollutant
Not available.

Snow Depth

Station Depth Elevation

Earthquake Activity

City Distance Mag. Time & Date
Minimum magnitude displayed is 2.5.

Coastal Water Temperatures

Place Temperature

Stations

Nearby Weather Stations

Station Location Temp. Windchill Dew Point Humidity Wind Precip. Elev Updated Type